createdAt,value
2017-03-01T00:00:24.116Z,0
2017-03-01T00:01:04.772Z,0
2017-03-01T00:01:45.443Z,0
2017-03-01T00:02:26.075Z,0
2017-03-01T00:03:06.733Z,0
2017-03-01T00:03:48.384Z,0
2017-03-01T00:04:29.054Z,0
2017-03-01T00:05:09.712Z,0
2017-03-01T00:05:50.371Z,0
2017-03-01T00:06:31.022Z,0
2017-03-01T00:07:11.681Z,0
2017-03-01T00:07:52.330Z,0
2017-03-01T00:08:34.009Z,0
2017-03-01T00:09:14.658Z,0
2017-03-01T00:09:55.313Z,0
2017-03-01T00:10:35.966Z,0
2017-03-01T00:11:16.610Z,0
2017-03-01T00:11:57.280Z,0
2017-03-01T00:12:37.918Z,0
2017-03-01T00:13:18.588Z,0
2017-03-01T00:13:59.229Z,0
2017-03-01T00:14:39.891Z,0
2017-03-01T00:15:20.540Z,0
2017-03-01T00:16:01.197Z,0
2017-03-01T00:16:42.871Z,0
2017-03-01T00:17:24.547Z,0
2017-03-01T00:18:05.203Z,0
2017-03-01T00:18:45.856Z,0
2017-03-01T00:19:26.500Z,0
2017-03-01T00:20:07.188Z,0
2017-03-01T00:20:47.820Z,0
2017-03-01T00:21:28.462Z,0
2017-03-01T00:22:09.106Z,0
2017-03-01T00:22:49.763Z,0
2017-03-01T00:23:30.430Z,0
2017-03-01T00:24:11.065Z,0
2017-03-01T00:24:51.767Z,0
2017-03-01T00:25:32.328Z,0
2017-03-01T00:26:13.026Z,0
2017-03-01T00:26:53.792Z,0
2017-03-01T00:27:34.504Z,0
2017-03-01T00:28:15.067Z,0
2017-03-01T00:28:55.761Z,0
2017-03-01T00:29:36.396Z,0
2017-03-01T00:30:17.158Z,0
2017-03-01T00:30:57.814Z,0
2017-03-01T00:31:38.468Z,0
2017-03-01T00:32:19.110Z,0
2017-03-01T00:32:59.760Z,0
2017-03-01T00:33:40.428Z,0
2017-03-01T00:34:21.083Z,0
2017-03-01T00:35:01.764Z,0
2017-03-01T00:35:42.319Z,0
2017-03-01T00:36:22.932Z,0
2017-03-01T00:37:03.594Z,0
2017-03-01T00:37:45.298Z,0
2017-03-01T00:38:25.861Z,0
2017-03-01T00:39:06.574Z,0
2017-03-01T00:39:47.220Z,0
2017-03-01T00:40:27.906Z,0
2017-03-01T00:41:08.472Z,0
2017-03-01T00:41:50.107Z,0
2017-03-01T00:42:30.750Z,0
2017-03-01T00:43:11.448Z,0
2017-03-01T00:43:51.991Z,0
2017-03-01T00:44:32.603Z,0
2017-03-01T00:45:13.260Z,0
2017-03-01T00:45:53.849Z,0
2017-03-01T00:46:34.476Z,0
2017-03-01T00:47:15.111Z,0
2017-03-01T00:47:55.690Z,0
2017-03-01T00:48:36.329Z,0
2017-03-01T00:49:16.984Z,0
2017-03-01T00:49:57.545Z,0
2017-03-01T00:50:38.169Z,0
2017-03-01T00:51:18.854Z,0
2017-03-01T00:51:59.542Z,0
2017-03-01T00:52:40.104Z,0
2017-03-01T00:53:20.797Z,0
2017-03-01T00:54:01.439Z,0
2017-03-01T00:54:42.137Z,0
2017-03-01T00:55:22.785Z,0
2017-03-01T00:56:03.441Z,0
2017-03-01T00:56:44.094Z,0
2017-03-01T00:57:24.750Z,0
2017-03-01T00:58:05.407Z,0
2017-03-01T00:58:46.052Z,0
2017-03-01T00:59:26.708Z,0
2017-03-01T01:00:07.292Z,0
2017-03-01T01:00:47.883Z,0
2017-03-01T01:01:28.518Z,0
2017-03-01T01:02:09.171Z,0
2017-03-01T01:02:49.873Z,0
2017-03-01T01:03:30.442Z,0
2017-03-01T01:04:11.139Z,0
2017-03-01T01:04:51.781Z,0
2017-03-01T01:05:32.434Z,0
2017-03-01T01:06:13.088Z,0
2017-03-01T01:06:54.781Z,0
2017-03-01T01:07:35.432Z,0
2017-03-01T01:08:16.052Z,0
2017-03-01T01:08:56.737Z,0
2017-03-01T01:09:37.387Z,0
2017-03-01T01:10:18.029Z,0
2017-03-01T01:10:58.692Z,0
2017-03-01T01:11:40.378Z,0
2017-03-01T01:12:21.020Z,0
2017-03-01T01:13:01.665Z,0
2017-03-01T01:13:42.324Z,0
2017-03-01T01:14:22.959Z,0
2017-03-01T01:15:03.675Z,0
2017-03-01T01:15:44.242Z,0
2017-03-01T01:16:25.977Z,0
2017-03-01T01:17:06.613Z,0
2017-03-01T01:17:47.307Z,0
2017-03-01T01:18:27.925Z,0
2017-03-01T01:19:08.578Z,0
2017-03-01T01:19:49.223Z,0
2017-03-01T01:20:29.880Z,0
2017-03-01T01:21:10.540Z,0
2017-03-01T01:21:51.195Z,0
2017-03-01T01:22:31.837Z,0
2017-03-01T01:23:12.491Z,0
2017-03-01T01:23:53.140Z,0
2017-03-01T01:24:33.786Z,0
2017-03-01T01:25:15.509Z,0
2017-03-01T01:25:56.079Z,0
2017-03-01T01:26:36.808Z,0
2017-03-01T01:27:18.456Z,0
2017-03-01T01:28:00.071Z,0
2017-03-01T01:28:40.636Z,0
2017-03-01T01:29:21.331Z,0
2017-03-01T01:30:03.012Z,0
2017-03-01T01:30:44.732Z,0
2017-03-01T01:31:25.313Z,0
2017-03-01T01:32:05.994Z,0
2017-03-01T01:32:46.642Z,0
2017-03-01T01:33:27.340Z,0
2017-03-01T01:34:07.891Z,0
2017-03-01T01:34:48.599Z,0
2017-03-01T01:35:29.270Z,0
2017-03-01T01:36:09.911Z,0
2017-03-01T01:36:50.561Z,0
2017-03-01T01:37:32.253Z,0
2017-03-01T01:38:12.904Z,0
2017-03-01T01:38:54.581Z,0
2017-03-01T01:39:35.240Z,0
2017-03-01T01:40:15.877Z,0
2017-03-01T01:40:56.541Z,0
2017-03-01T01:41:37.183Z,0
2017-03-01T01:42:17.837Z,0
2017-03-01T01:42:58.491Z,0
2017-03-01T01:43:39.142Z,0
2017-03-01T01:44:19.792Z,0
2017-03-01T01:45:00.451Z,0
2017-03-01T01:45:41.108Z,0
2017-03-01T01:46:21.752Z,0
2017-03-01T01:47:02.415Z,0
2017-03-01T01:47:43.027Z,0
2017-03-01T01:48:23.720Z,0
2017-03-01T01:49:04.361Z,0
2017-03-01T01:49:45.021Z,0
2017-03-01T01:50:25.576Z,0
2017-03-01T01:51:06.217Z,0
2017-03-01T01:51:46.878Z,0
2017-03-01T01:52:27.432Z,0
2017-03-01T01:53:08.086Z,0
2017-03-01T01:53:48.741Z,0
2017-03-01T01:54:29.332Z,0
2017-03-01T01:55:10.046Z,0
2017-03-01T01:55:50.686Z,0
2017-03-01T01:56:31.341Z,0
2017-03-01T01:57:13.027Z,0
2017-03-01T01:57:53.685Z,0
2017-03-01T01:58:34.324Z,0
2017-03-01T01:59:14.988Z,0
2017-03-01T01:59:55.654Z,0
2017-03-01T02:00:36.212Z,0
2017-03-01T02:01:16.842Z,0
2017-03-01T02:01:57.494Z,0
2017-03-01T02:02:38.047Z,0
2017-03-01T02:03:18.786Z,0
2017-03-01T02:03:59.443Z,0
2017-03-01T02:04:40.006Z,0
2017-03-01T02:05:20.663Z,0
2017-03-01T02:06:01.299Z,0
2017-03-01T02:06:41.947Z,0
2017-03-01T02:07:22.604Z,0
2017-03-01T02:08:03.273Z,0
2017-03-01T02:08:43.908Z,0
2017-03-01T02:09:25.600Z,0
2017-03-01T02:10:06.250Z,0
2017-03-01T02:10:46.895Z,0
2017-03-01T02:11:27.557Z,0
2017-03-01T02:12:08.206Z,0
2017-03-01T02:12:48.864Z,0
2017-03-01T02:13:29.517Z,0
2017-03-01T02:14:10.156Z,0
2017-03-01T02:14:50.820Z,0
2017-03-01T02:15:31.566Z,0
2017-03-01T02:16:13.251Z,0
2017-03-01T02:16:53.905Z,0
2017-03-01T02:17:34.563Z,0
2017-03-01T02:18:15.212Z,0
2017-03-01T02:18:57.914Z,0
2017-03-01T02:19:38.576Z,0
2017-03-01T02:20:20.261Z,0
2017-03-01T02:21:00.893Z,0
2017-03-01T02:21:43.639Z,0
2017-03-01T02:22:24.342Z,0
2017-03-01T02:23:05.010Z,0
2017-03-01T02:23:45.659Z,0
2017-03-01T02:24:26.300Z,0
2017-03-01T02:25:06.961Z,0
2017-03-01T02:25:47.654Z,0
2017-03-01T02:26:28.213Z,0
2017-03-01T02:27:08.924Z,0
2017-03-01T02:27:49.563Z,0
2017-03-01T02:28:30.267Z,0
2017-03-01T02:29:10.826Z,0
2017-03-01T02:29:51.553Z,0
2017-03-01T02:30:33.203Z,0
2017-03-01T02:31:15.911Z,0
2017-03-01T02:31:56.564Z,0
2017-03-01T02:32:37.213Z,0
2017-03-01T02:33:17.858Z,0
2017-03-01T02:33:58.521Z,0
2017-03-01T02:34:39.168Z,0
2017-03-01T02:35:19.840Z,0
2017-03-01T02:36:00.480Z,0
2017-03-01T02:36:42.155Z,0
2017-03-01T02:37:22.807Z,0
2017-03-01T02:38:04.487Z,0
2017-03-01T02:38:45.139Z,0
2017-03-01T02:39:25.780Z,0
2017-03-01T02:40:06.446Z,0
2017-03-01T02:40:47.110Z,0
2017-03-01T02:41:27.750Z,0
2017-03-01T02:42:08.404Z,0
2017-03-01T02:42:56.020Z,0
2017-03-01T02:43:36.674Z,0
2017-03-01T02:44:17.319Z,0
2017-03-01T02:44:57.970Z,0
2017-03-01T02:45:38.677Z,0
2017-03-01T02:46:19.226Z,0
2017-03-01T02:46:59.934Z,0
2017-03-01T02:47:40.588Z,0
2017-03-01T02:48:21.294Z,0
2017-03-01T02:49:01.846Z,0
2017-03-01T02:49:43.562Z,0
2017-03-01T02:50:24.286Z,0
2017-03-01T02:51:05.944Z,0
2017-03-01T02:51:46.520Z,0
2017-03-01T02:52:27.205Z,0
2017-03-01T02:53:07.851Z,0
2017-03-01T02:53:48.556Z,0
2017-03-01T02:54:29.122Z,0
2017-03-01T02:55:09.819Z,0
2017-03-01T02:55:50.471Z,0
2017-03-01T02:56:31.031Z,0
2017-03-01T02:57:11.675Z,0
2017-03-01T02:57:52.328Z,0
2017-03-01T02:58:32.935Z,0
2017-03-01T02:59:15.618Z,0
2017-03-01T02:59:56.352Z,0
2017-03-01T03:00:38.006Z,0
2017-03-01T03:01:18.670Z,0
2017-03-01T03:02:00.360Z,0
2017-03-01T03:02:40.995Z,0
2017-03-01T03:03:21.648Z,0
2017-03-01T03:04:02.307Z,0
2017-03-01T03:04:42.948Z,0
2017-03-01T03:05:23.600Z,0
2017-03-01T03:06:06.316Z,0
2017-03-01T03:06:47.992Z,0
2017-03-01T03:07:28.635Z,0
2017-03-01T03:08:09.288Z,0
2017-03-01T03:08:50.968Z,0
2017-03-01T03:09:33.673Z,0
2017-03-01T03:10:14.373Z,0
2017-03-01T03:10:54.922Z,0
2017-03-01T03:11:35.631Z,0
2017-03-01T03:12:16.278Z,0
2017-03-01T03:12:56.983Z,0
2017-03-01T03:13:37.533Z,0
2017-03-01T03:14:18.230Z,0
2017-03-01T03:14:59.929Z,0
2017-03-01T03:15:40.575Z,0
2017-03-01T03:16:21.243Z,0
2017-03-01T03:17:01.871Z,0
2017-03-01T03:17:42.532Z,0
2017-03-01T03:18:23.190Z,0
2017-03-01T03:19:03.946Z,0
2017-03-01T03:19:44.689Z,0
2017-03-01T03:20:36.094Z,0
2017-03-01T03:21:16.760Z,0
2017-03-01T03:21:57.412Z,0
2017-03-01T03:22:38.061Z,0
2017-03-01T03:23:19.737Z,0
2017-03-01T03:24:00.391Z,0
2017-03-01T03:24:43.086Z,0
2017-03-01T03:25:23.780Z,0
2017-03-01T03:26:04.376Z,0
2017-03-01T03:26:45.056Z,0
2017-03-01T03:27:25.695Z,0
2017-03-01T03:28:06.300Z,0
2017-03-01T03:28:46.915Z,0
2017-03-01T03:29:28.594Z,0
2017-03-01T03:30:09.228Z,0
2017-03-01T03:30:49.880Z,0
2017-03-01T03:31:30.554Z,0
2017-03-01T03:32:12.226Z,0
2017-03-01T03:32:53.899Z,0
2017-03-01T03:33:34.556Z,0
2017-03-01T03:34:16.234Z,0
2017-03-01T03:34:56.971Z,0
2017-03-01T03:35:37.628Z,0
2017-03-01T03:36:19.309Z,0
2017-03-01T03:36:59.960Z,0
2017-03-01T03:37:40.618Z,0
2017-03-01T03:38:27.095Z,0
2017-03-01T03:39:07.754Z,0
2017-03-01T03:39:48.404Z,0
2017-03-01T03:40:29.063Z,0
2017-03-01T03:41:10.742Z,0
2017-03-01T03:41:51.383Z,0
2017-03-01T03:42:33.072Z,0
2017-03-01T03:43:14.739Z,0
2017-03-01T03:43:55.394Z,0
2017-03-01T03:44:36.048Z,0
2017-03-01T03:45:16.610Z,0
2017-03-01T03:45:57.300Z,0
2017-03-01T03:46:44.557Z,0
2017-03-01T03:47:25.122Z,0
2017-03-01T03:48:07.831Z,0
2017-03-01T03:48:48.474Z,0
2017-03-01T03:49:29.039Z,0
2017-03-01T03:50:15.315Z,0
2017-03-01T03:50:55.955Z,0
2017-03-01T03:51:43.409Z,0
2017-03-01T03:52:23.989Z,0
2017-03-01T03:53:05.701Z,0
2017-03-01T03:53:48.400Z,0
2017-03-01T03:54:29.095Z,0
2017-03-01T03:55:09.681Z,0
2017-03-01T03:55:50.350Z,0
2017-03-01T03:56:32.037Z,0
2017-03-01T03:57:13.720Z,0
2017-03-01T03:57:56.407Z,0
2017-03-01T03:58:38.093Z,0
2017-03-01T03:59:18.736Z,0
2017-03-01T04:00:00.423Z,0
2017-03-01T04:00:41.086Z,0
2017-03-01T04:01:21.651Z,0
2017-03-01T04:02:03.307Z,0
2017-03-01T04:02:43.956Z,0
2017-03-01T04:03:24.528Z,0
2017-03-01T04:04:05.257Z,0
2017-03-01T04:04:45.909Z,0
2017-03-01T04:05:26.476Z,0
2017-03-01T04:06:07.118Z,0
2017-03-01T04:06:47.774Z,0
2017-03-01T04:07:28.418Z,0
2017-03-01T04:08:09.117Z,0
2017-03-01T04:08:49.827Z,0
2017-03-01T04:09:30.486Z,0
2017-03-01T04:10:12.162Z,0
2017-03-01T04:10:53.891Z,0
2017-03-01T04:11:34.462Z,0
2017-03-01T04:12:15.141Z,0
2017-03-01T04:12:55.898Z,0
2017-03-01T04:13:36.592Z,0
2017-03-01T04:14:17.165Z,0
2017-03-01T04:14:58.894Z,0
2017-03-01T04:15:39.639Z,0
2017-03-01T04:16:21.356Z,0
2017-03-01T04:17:01.908Z,0
2017-03-01T04:17:42.620Z,0
2017-03-01T04:18:23.271Z,0
2017-03-01T04:19:03.969Z,0
2017-03-01T04:19:44.531Z,0
2017-03-01T04:20:27.292Z,0
2017-03-01T04:21:08.042Z,0
2017-03-01T04:21:48.689Z,0
2017-03-01T04:22:30.363Z,0
2017-03-01T04:23:11.043Z,0
2017-03-01T04:23:51.702Z,0
2017-03-01T04:24:33.448Z,0
2017-03-01T04:25:18.837Z,0
2017-03-01T04:25:59.590Z,0
2017-03-01T04:26:41.241Z,0
2017-03-01T04:27:22.007Z,0
2017-03-01T04:28:02.754Z,0
2017-03-01T04:28:44.430Z,0
2017-03-01T04:29:25.080Z,0
2017-03-01T04:30:05.748Z,0
2017-03-01T04:30:48.438Z,0
2017-03-01T04:31:30.119Z,0
2017-03-01T04:32:10.765Z,0
2017-03-01T04:32:51.422Z,0
2017-03-01T04:33:34.118Z,0
2017-03-01T04:34:15.813Z,0
2017-03-01T04:34:57.485Z,0
2017-03-01T04:35:38.227Z,0
2017-03-01T04:36:19.909Z,0
2017-03-01T04:37:01.598Z,0
2017-03-01T04:37:42.338Z,0
2017-03-01T04:38:24.018Z,0
2017-03-01T04:39:04.692Z,0
2017-03-01T04:39:45.427Z,0
2017-03-01T04:40:26.075Z,0
2017-03-01T04:41:06.848Z,0
2017-03-01T04:41:47.593Z,0
2017-03-01T04:42:28.240Z,0
2017-03-01T04:43:08.893Z,0
2017-03-01T04:43:49.554Z,0
2017-03-01T04:44:30.299Z,0
2017-03-01T04:45:10.965Z,0
2017-03-01T04:45:51.651Z,0
2017-03-01T04:46:32.210Z,0
2017-03-01T04:47:13.949Z,0
2017-03-01T04:47:54.695Z,0
2017-03-01T04:48:35.401Z,0
2017-03-01T04:49:15.955Z,0
2017-03-01T04:50:08.324Z,0
2017-03-01T04:50:48.979Z,0
2017-03-01T04:51:29.632Z,0
2017-03-01T04:52:15.097Z,0
2017-03-01T04:52:56.783Z,0
2017-03-01T04:53:43.084Z,0
2017-03-01T04:54:23.711Z,0
2017-03-01T04:55:06.421Z,0
2017-03-01T04:55:47.173Z,0
2017-03-01T04:56:28.866Z,0
2017-03-01T04:57:09.618Z,0
2017-03-01T04:57:51.288Z,0
2017-03-01T04:58:31.927Z,0
2017-03-01T04:59:12.581Z,0
2017-03-01T04:59:53.343Z,0
2017-03-01T05:00:38.600Z,0
2017-03-01T05:01:19.305Z,0
2017-03-01T05:01:59.865Z,0
2017-03-01T05:02:40.429Z,0
2017-03-01T05:03:21.119Z,0
2017-03-01T05:04:01.707Z,0
2017-03-01T05:04:42.286Z,0
2017-03-01T05:05:22.957Z,0
2017-03-01T05:06:03.623Z,0
2017-03-01T05:06:44.384Z,0
2017-03-01T05:07:25.132Z,0
2017-03-01T05:08:07.834Z,0
2017-03-01T05:08:49.535Z,0
2017-03-01T05:09:30.265Z,0
2017-03-01T05:10:11.961Z,0
2017-03-01T05:10:52.696Z,0
2017-03-01T05:11:33.487Z,0
2017-03-01T05:12:14.211Z,0
2017-03-01T05:12:54.964Z,0
2017-03-01T05:13:35.650Z,0
2017-03-01T05:14:16.380Z,0
2017-03-01T05:14:57.132Z,0
2017-03-01T05:15:38.810Z,0
2017-03-01T05:16:19.382Z,0
2017-03-01T05:17:00.089Z,0
2017-03-01T05:17:40.852Z,0
2017-03-01T05:18:21.403Z,0
2017-03-01T05:19:02.159Z,0
2017-03-01T05:19:42.822Z,0
2017-03-01T05:20:23.405Z,0
2017-03-01T05:21:06.057Z,0
2017-03-01T05:21:47.665Z,0
2017-03-01T05:22:28.234Z,0
2017-03-01T05:23:08.952Z,0
2017-03-01T05:23:49.606Z,0
2017-03-01T05:24:30.179Z,0
2017-03-01T05:25:10.930Z,0
2017-03-01T05:25:51.664Z,0
2017-03-01T05:26:32.261Z,0
2017-03-01T05:27:12.811Z,0
2017-03-01T05:27:59.384Z,0
2017-03-01T05:28:40.137Z,0
2017-03-01T05:29:21.837Z,0
2017-03-01T05:30:02.393Z,0
2017-03-01T05:30:43.160Z,0
2017-03-01T05:31:29.606Z,0
2017-03-01T05:32:11.388Z,0
2017-03-01T05:32:52.166Z,0
2017-03-01T05:33:33.907Z,0
2017-03-01T05:34:21.643Z,0
2017-03-01T05:35:04.355Z,0
2017-03-01T05:35:46.105Z,0
2017-03-01T05:36:31.571Z,0
2017-03-01T05:37:12.238Z,0
2017-03-01T05:37:53.903Z,0
2017-03-01T05:38:34.679Z,0
2017-03-01T05:39:15.460Z,0
2017-03-01T05:39:56.168Z,0
2017-03-01T05:40:37.880Z,0
2017-03-01T05:41:20.504Z,0
2017-03-01T05:42:01.078Z,0
2017-03-01T05:42:41.745Z,0
2017-03-01T05:43:23.422Z,0
2017-03-01T05:44:04.120Z,0
2017-03-01T05:44:44.684Z,0
2017-03-01T05:45:25.414Z,0
2017-03-01T05:46:06.160Z,0
2017-03-01T05:46:46.723Z,0
2017-03-01T05:47:28.435Z,0
2017-03-01T05:48:08.997Z,0
2017-03-01T05:48:49.672Z,0
2017-03-01T05:49:30.241Z,0
2017-03-01T05:50:12.012Z,0
2017-03-01T05:50:52.786Z,0
2017-03-01T05:51:34.377Z,0
2017-03-01T05:52:14.946Z,0
2017-03-01T05:52:55.636Z,0
2017-03-01T05:53:36.643Z,0
2017-03-01T05:54:18.321Z,0
2017-03-01T05:54:58.876Z,0
2017-03-01T05:55:40.611Z,0
2017-03-01T05:56:21.346Z,0
2017-03-01T05:57:03.050Z,0
2017-03-01T05:57:43.808Z,0
2017-03-01T05:58:29.368Z,0
2017-03-01T05:59:10.136Z,0
2017-03-01T05:59:52.825Z,0
2017-03-01T06:00:39.412Z,0
2017-03-01T06:01:20.161Z,0
2017-03-01T06:02:01.895Z,0
2017-03-01T06:02:44.652Z,0
2017-03-01T06:03:26.463Z,0
2017-03-01T06:04:07.224Z,0
2017-03-01T06:04:47.949Z,0
2017-03-01T06:05:28.688Z,0
2017-03-01T06:06:09.445Z,0
2017-03-01T06:06:51.129Z,0
2017-03-01T06:07:32.807Z,0
2017-03-01T06:08:13.563Z,0
2017-03-01T06:08:54.316Z,0
2017-03-01T06:09:35.063Z,0
2017-03-01T06:10:17.776Z,0
2017-03-01T06:10:58.342Z,0
2017-03-01T06:11:39.078Z,0
2017-03-01T06:12:20.799Z,0
2017-03-01T06:13:01.368Z,0
2017-03-01T06:13:42.084Z,0
2017-03-01T06:14:22.824Z,0
2017-03-01T06:15:03.517Z,0
2017-03-01T06:15:44.141Z,0
2017-03-01T06:16:24.888Z,0
2017-03-01T06:17:06.657Z,0
2017-03-01T06:17:47.357Z,0
2017-03-01T06:18:27.909Z,0
2017-03-01T06:19:08.618Z,0
2017-03-01T06:19:49.369Z,0
2017-03-01T06:20:30.070Z,0
2017-03-01T06:21:10.643Z,0
2017-03-01T06:21:52.374Z,0
2017-03-01T06:22:33.123Z,0
2017-03-01T06:23:13.913Z,0
2017-03-01T06:23:54.477Z,0
2017-03-01T06:24:35.168Z,0
2017-03-01T06:25:15.842Z,5
2017-03-01T06:25:56.432Z,5
2017-03-01T06:26:37.001Z,5
2017-03-01T06:27:17.557Z,5
2017-03-01T06:27:58.354Z,5
2017-03-01T06:28:39.056Z,5
2017-03-01T06:29:19.609Z,5
2017-03-01T06:30:00.216Z,5
2017-03-01T06:30:41.070Z,5
2017-03-01T06:31:22.838Z,5
2017-03-01T06:32:03.575Z,5
2017-03-01T06:32:51.107Z,5
2017-03-01T06:33:31.766Z,5
2017-03-01T06:34:17.267Z,5
2017-03-01T06:34:59.053Z,5
2017-03-01T06:35:39.611Z,5
2017-03-01T06:36:21.244Z,5
2017-03-01T06:37:01.816Z,5
2017-03-01T06:37:42.445Z,5
2017-03-01T06:38:24.222Z,5
2017-03-01T06:39:04.794Z,5
2017-03-01T06:39:45.412Z,5
2017-03-01T06:40:26.078Z,10
2017-03-01T06:41:06.634Z,10
2017-03-01T06:41:47.382Z,10
2017-03-01T06:42:29.072Z,15
2017-03-01T06:43:09.714Z,15
2017-03-01T06:43:50.390Z,15
2017-03-01T06:44:31.100Z,15
2017-03-01T06:45:11.782Z,10
2017-03-01T06:45:53.456Z,10
2017-03-01T06:46:34.110Z,10
2017-03-01T06:47:14.680Z,10
2017-03-01T06:47:55.296Z,10
2017-03-01T06:48:35.957Z,10
2017-03-01T06:49:16.613Z,15
2017-03-01T06:49:57.268Z,10
2017-03-01T06:50:38.030Z,10
2017-03-01T06:51:18.681Z,10
2017-03-01T06:51:59.328Z,10
2017-03-01T06:52:39.968Z,10
2017-03-01T06:53:20.649Z,10
2017-03-01T06:54:01.284Z,10
2017-03-01T06:54:41.926Z,10
2017-03-01T06:55:22.812Z,15
2017-03-01T06:56:03.491Z,15
2017-03-01T06:56:44.049Z,15
2017-03-01T06:57:24.640Z,15
2017-03-01T06:58:05.304Z,15
2017-03-01T06:58:45.995Z,15
2017-03-01T06:59:26.566Z,15
2017-03-01T07:00:07.253Z,15
2017-03-01T07:00:47.918Z,15
2017-03-01T07:01:28.514Z,15
2017-03-01T07:02:09.075Z,20
2017-03-01T07:02:49.694Z,15
2017-03-01T07:03:30.260Z,15
2017-03-01T07:04:10.871Z,20
2017-03-01T07:04:51.565Z,20
2017-03-01T07:05:32.124Z,25
2017-03-01T07:06:12.732Z,25
2017-03-01T07:06:53.407Z,20
2017-03-01T07:07:34.049Z,20
2017-03-01T07:08:14.728Z,20
2017-03-01T07:08:55.381Z,15
2017-03-01T07:09:36.035Z,15
2017-03-01T07:10:16.690Z,20
2017-03-01T07:10:57.797Z,20
2017-03-01T07:11:38.567Z,20
2017-03-01T07:12:19.220Z,20
2017-03-01T07:12:59.912Z,20
2017-03-01T07:13:40.483Z,20
2017-03-01T07:14:21.186Z,20
2017-03-01T07:15:01.838Z,15
2017-03-01T07:15:43.459Z,15
2017-03-01T07:16:24.062Z,15
2017-03-01T07:17:04.713Z,15
2017-03-01T07:17:45.379Z,15
2017-03-01T07:18:26.018Z,15
2017-03-01T07:19:06.674Z,20
2017-03-01T07:19:47.325Z,20
2017-03-01T07:20:27.975Z,20
2017-03-01T07:21:08.630Z,15
2017-03-01T07:21:49.292Z,15
2017-03-01T07:22:30.964Z,15
2017-03-01T07:23:12.637Z,15
2017-03-01T07:23:53.292Z,15
2017-03-01T07:24:34.025Z,20
2017-03-01T07:25:14.689Z,25
2017-03-01T07:25:55.353Z,30
2017-03-01T07:26:36.046Z,35
2017-03-01T07:27:16.609Z,40
2017-03-01T07:27:57.208Z,40
2017-03-01T07:28:37.868Z,35
2017-03-01T07:29:18.556Z,40
2017-03-01T07:29:59.111Z,40
2017-03-01T07:30:39.709Z,45
2017-03-01T07:31:20.371Z,45
2017-03-01T07:32:01.016Z,40
2017-03-01T07:32:41.675Z,35
2017-03-01T07:33:23.351Z,40
2017-03-01T07:34:05.029Z,45
2017-03-01T07:34:45.681Z,55
2017-03-01T07:35:26.244Z,60
2017-03-01T07:36:06.888Z,60
2017-03-01T07:36:48.561Z,45
2017-03-01T07:37:29.221Z,40
2017-03-01T07:38:09.870Z,45
2017-03-01T07:38:50.515Z,60
2017-03-01T07:39:31.178Z,65
2017-03-01T07:40:11.828Z,65
2017-03-01T07:40:52.482Z,70
2017-03-01T07:41:33.051Z,80
2017-03-01T07:42:14.720Z,80
2017-03-01T07:42:55.359Z,70
2017-03-01T07:43:36.054Z,65
2017-03-01T07:44:16.618Z,70
2017-03-01T07:44:57.213Z,75
2017-03-01T07:45:37.886Z,75
2017-03-01T07:46:18.560Z,65
2017-03-01T07:46:59.877Z,60
2017-03-01T07:47:40.558Z,55
2017-03-01T07:48:21.204Z,55
2017-03-01T07:49:01.889Z,55
2017-03-01T07:49:42.456Z,55
2017-03-01T07:50:23.080Z,60
2017-03-01T07:51:03.752Z,65
2017-03-01T07:51:44.337Z,75
2017-03-01T07:52:25.021Z,75
2017-03-01T07:53:05.682Z,70
2017-03-01T07:53:46.364Z,65
2017-03-01T07:54:26.930Z,55
2017-03-01T07:55:07.539Z,50
2017-03-01T07:55:48.190Z,45
2017-03-01T07:56:28.846Z,40
2017-03-01T07:57:09.537Z,35
2017-03-01T07:57:50.236Z,30
2017-03-01T07:58:30.994Z,25
2017-03-01T07:59:11.676Z,25
2017-03-01T07:59:52.310Z,30
2017-03-01T08:00:32.953Z,35
2017-03-01T08:01:13.603Z,35
2017-03-01T08:01:54.266Z,45
2017-03-01T08:02:34.910Z,55
2017-03-01T08:03:15.607Z,60
2017-03-01T08:03:56.314Z,75
2017-03-01T08:04:36.998Z,75
2017-03-01T08:05:17.638Z,75
2017-03-01T08:05:58.281Z,80
2017-03-01T08:06:38.977Z,80
2017-03-01T08:07:19.574Z,80
2017-03-01T08:08:00.246Z,75
2017-03-01T08:08:40.896Z,60
2017-03-01T08:09:21.545Z,60
2017-03-01T08:10:02.200Z,60
2017-03-01T08:10:42.867Z,60
2017-03-01T08:11:23.499Z,55
2017-03-01T08:12:04.158Z,50
2017-03-01T08:12:44.811Z,55
2017-03-01T08:13:25.468Z,50
2017-03-01T08:14:06.115Z,60
2017-03-01T08:14:46.765Z,80
2017-03-01T08:15:27.431Z,80
2017-03-01T08:16:08.073Z,80
2017-03-01T08:16:48.723Z,65
2017-03-01T08:17:29.377Z,70
2017-03-01T08:18:10.043Z,70
2017-03-01T08:18:51.710Z,65
2017-03-01T08:19:32.371Z,60
2017-03-01T08:20:13.059Z,55
2017-03-01T08:20:53.643Z,60
2017-03-01T08:21:35.346Z,55
2017-03-01T08:22:15.999Z,45
2017-03-01T08:22:56.706Z,45
2017-03-01T08:23:37.287Z,50
2017-03-01T08:24:17.989Z,50
2017-03-01T08:24:58.618Z,55
2017-03-01T08:25:39.312Z,55
2017-03-01T08:26:19.963Z,55
2017-03-01T08:27:00.520Z,50
2017-03-01T08:27:41.226Z,50
2017-03-01T08:28:21.891Z,55
2017-03-01T08:29:03.564Z,60
2017-03-01T08:29:44.242Z,70
2017-03-01T08:30:24.878Z,60
2017-03-01T08:31:05.517Z,50
2017-03-01T08:31:47.196Z,50
2017-03-01T08:32:27.858Z,45
2017-03-01T08:33:08.493Z,45
2017-03-01T08:33:49.185Z,55
2017-03-01T08:34:29.800Z,60
2017-03-01T08:35:11.530Z,65
2017-03-01T08:35:52.241Z,65
2017-03-01T08:36:32.890Z,65
2017-03-01T08:37:15.631Z,65
2017-03-01T08:37:57.269Z,50
2017-03-01T08:38:38.947Z,45
2017-03-01T08:39:20.631Z,50
2017-03-01T08:40:01.275Z,55
2017-03-01T08:40:42.969Z,50
2017-03-01T08:41:28.328Z,65
2017-03-01T08:42:09.066Z,65
2017-03-01T08:42:50.779Z,65
2017-03-01T08:43:31.429Z,70
2017-03-01T08:44:12.047Z,65
2017-03-01T08:44:52.709Z,65
2017-03-01T08:45:33.368Z,70
2017-03-01T08:46:14.048Z,60
2017-03-01T08:46:54.669Z,60
2017-03-01T08:47:35.339Z,60
2017-03-01T08:48:16.014Z,65
2017-03-01T08:48:56.666Z,75
2017-03-01T08:49:38.348Z,75
2017-03-01T08:50:19.003Z,60
2017-03-01T08:50:59.582Z,60
2017-03-01T08:51:40.277Z,65
2017-03-01T08:52:21.942Z,65
2017-03-01T08:53:02.736Z,65
2017-03-01T08:53:43.294Z,60
2017-03-01T08:54:24.010Z,55
2017-03-01T08:55:04.650Z,50
2017-03-01T08:55:45.340Z,55
2017-03-01T08:56:26.001Z,75
2017-03-01T08:57:06.651Z,90
2017-03-01T08:57:47.304Z,110
2017-03-01T08:58:28.062Z,125
2017-03-01T08:59:08.713Z,125
2017-03-01T08:59:49.390Z,125
2017-03-01T09:00:30.130Z,115
2017-03-01T09:01:10.690Z,110
2017-03-01T09:01:52.521Z,110
2017-03-01T09:02:32.993Z,110
2017-03-01T09:03:13.606Z,125
2017-03-01T09:03:54.262Z,135
2017-03-01T09:04:34.881Z,140
2017-03-01T09:05:16.594Z,145
2017-03-01T09:05:57.162Z,140
2017-03-01T09:06:37.816Z,140
2017-03-01T09:07:18.475Z,130
2017-03-01T09:07:59.155Z,130
2017-03-01T09:08:39.898Z,140
2017-03-01T09:09:20.623Z,155
2017-03-01T09:10:01.289Z,160
2017-03-01T09:10:42.127Z,140
2017-03-01T09:11:22.793Z,135
2017-03-01T09:12:03.432Z,130
2017-03-01T09:12:44.199Z,110
2017-03-01T09:13:24.834Z,90
2017-03-01T09:14:05.490Z,90
2017-03-01T09:14:46.155Z,120
2017-03-01T09:15:26.806Z,125
2017-03-01T09:16:07.455Z,110
2017-03-01T09:16:48.105Z,85
2017-03-01T09:17:28.797Z,90
2017-03-01T09:18:09.370Z,115
2017-03-01T09:18:50.081Z,90
2017-03-01T09:19:30.708Z,85
2017-03-01T09:20:11.412Z,85
2017-03-01T09:20:51.981Z,80
2017-03-01T09:21:32.688Z,70
2017-03-01T09:22:13.318Z,60
2017-03-01T09:22:53.993Z,65
2017-03-01T09:23:34.671Z,80
2017-03-01T09:24:15.251Z,95
2017-03-01T09:24:55.930Z,100
2017-03-01T09:25:36.584Z,110
2017-03-01T09:26:17.147Z,105
2017-03-01T09:26:57.847Z,105
2017-03-01T09:27:38.543Z,110
2017-03-01T09:28:20.223Z,90
2017-03-01T09:29:00.868Z,70
2017-03-01T09:29:41.439Z,75
2017-03-01T09:30:22.133Z,90
2017-03-01T09:31:02.851Z,105
2017-03-01T09:31:43.484Z,115
2017-03-01T09:32:24.148Z,95
2017-03-01T09:33:04.792Z,80
2017-03-01T09:33:45.443Z,75
2017-03-01T09:34:26.148Z,65
2017-03-01T09:35:06.852Z,65
2017-03-01T09:35:47.535Z,70
2017-03-01T09:36:28.179Z,80
2017-03-01T09:37:08.829Z,85
2017-03-01T09:37:49.488Z,80
2017-03-01T09:38:30.316Z,95
2017-03-01T09:39:10.993Z,85
2017-03-01T09:39:51.649Z,75
2017-03-01T09:40:32.288Z,65
2017-03-01T09:41:12.935Z,60
2017-03-01T09:41:53.600Z,55
2017-03-01T09:42:34.188Z,50
2017-03-01T09:43:14.902Z,50
2017-03-01T09:43:55.557Z,50
2017-03-01T09:44:36.211Z,50
2017-03-01T09:45:16.855Z,55
2017-03-01T09:45:57.522Z,55
2017-03-01T09:46:38.314Z,60
2017-03-01T09:47:20.411Z,55
2017-03-01T09:48:01.126Z,50
2017-03-01T09:48:41.760Z,50
2017-03-01T09:49:22.458Z,50
2017-03-01T09:50:03.020Z,55
2017-03-01T09:50:43.715Z,55
2017-03-01T09:51:24.383Z,60
2017-03-01T09:52:05.028Z,60
2017-03-01T09:52:45.712Z,60
2017-03-01T09:53:26.343Z,60
2017-03-01T09:54:06.995Z,70
2017-03-01T09:54:47.660Z,75
2017-03-01T09:55:29.322Z,70
2017-03-01T09:56:09.980Z,65
2017-03-01T09:56:50.637Z,60
2017-03-01T09:57:31.304Z,55
2017-03-01T09:58:11.933Z,55